sensor_id;sensor_type;location;lat;lon;timestamp;temperature;humidity
77052;SHT30;65980;44.898;8.602;2023-03-14T00:02:54;11.48;87.01
77052;SHT30;65980;44.898;8.602;2023-03-14T00:06:01;11.66;86.38
77052;SHT30;65980;44.898;8.602;2023-03-14T00:09:06;11.77;85.88
77052;SHT30;65980;44.898;8.602;2023-03-14T00:12:11;12.04;84.79
77052;SHT30;65980;44.898;8.602;2023-03-14T00:15:15;12.14;84.23
77052;SHT30;65980;44.898;8.602;2023-03-14T00:18:19;11.80;85.47
77052;SHT30;65980;44.898;8.602;2023-03-14T00:21:23;11.49;87.46
77052;SHT30;65980;44.898;8.602;2023-03-14T00:24:28;11.45;87.85
77052;SHT30;65980;44.898;8.602;2023-03-14T00:27:31;11.51;87.71
77052;SHT30;65980;44.898;8.602;2023-03-14T00:30:37;11.40;88.35
77052;SHT30;65980;44.898;8.602;2023-03-14T00:33:42;11.32;89.08
77052;SHT30;65980;44.898;8.602;2023-03-14T00:36:46;11.43;88.39
77052;SHT30;65980;44.898;8.602;2023-03-14T00:39:51;11.43;88.44
77052;SHT30;65980;44.898;8.602;2023-03-14T00:42:55;11.28;89.14
77052;SHT30;65980;44.898;8.602;2023-03-14T00:45:59;11.06;90.39
77052;SHT30;65980;44.898;8.602;2023-03-14T00:49:04;11.01;90.63
77052;SHT30;65980;44.898;8.602;2023-03-14T00:52:08;10.99;90.97
77052;SHT30;65980;44.898;8.602;2023-03-14T00:55:13;11.01;90.80
77052;SHT30;65980;44.898;8.602;2023-03-14T00:58:17;10.89;91.29
77052;SHT30;65980;44.898;8.602;2023-03-14T01:01:22;10.84;91.44
77052;SHT30;65980;44.898;8.602;2023-03-14T01:04:26;10.86;91.55
77052;SHT30;65980;44.898;8.602;2023-03-14T01:07:32;10.84;91.43
77052;SHT30;65980;44.898;8.602;2023-03-14T01:10:38;10.92;91.08
77052;SHT30;65980;44.898;8.602;2023-03-14T01:13:42;11.04;90.73
77052;SHT30;65980;44.898;8.602;2023-03-14T01:16:47;11.14;89.92
77052;SHT30;65980;44.898;8.602;2023-03-14T01:19:51;11.07;89.91
77052;SHT30;65980;44.898;8.602;2023-03-14T01:22:54;11.17;89.60
77052;SHT30;65980;44.898;8.602;2023-03-14T01:25:58;11.22;89.30
77052;SHT30;65980;44.898;8.602;2023-03-14T01:29:03;11.31;88.97
77052;SHT30;65980;44.898;8.602;2023-03-14T01:32:10;11.65;87.45
77052;SHT30;65980;44.898;8.602;2023-03-14T01:35:13;11.76;86.89
77052;SHT30;65980;44.898;8.602;2023-03-14T01:38:18;11.87;86.59
77052;SHT30;65980;44.898;8.602;2023-03-14T01:41:24;11.93;86.20
77052;SHT30;65980;44.898;8.602;2023-03-14T01:44:46;11.79;86.68
77052;SHT30;65980;44.898;8.602;2023-03-14T01:47:51;11.63;87.84
77052;SHT30;65980;44.898;8.602;2023-03-14T01:50:56;11.93;86.21
77052;SHT30;65980;44.898;8.602;2023-03-14T01:54:02;12.41;84.77
77052;SHT30;65980;44.898;8.602;2023-03-14T02:00:14;13.48;81.52
77052;SHT30;65980;44.898;8.602;2023-03-14T02:03:21;13.76;80.30
77052;SHT30;65980;44.898;8.602;2023-03-14T02:06:33;13.84;79.91
77052;SHT30;65980;44.898;8.602;2023-03-14T02:09:39;11.89;86.45
77052;SHT30;65980;44.898;8.602;2023-03-14T02:12:47;11.34;89.36
77052;SHT30;65980;44.898;8.602;2023-03-14T02:16:02;11.34;89.81
77052;SHT30;65980;44.898;8.602;2023-03-14T02:23:15;11.07;91.05
77052;SHT30;65980;44.898;8.602;2023-03-14T02:26:22;11.10;90.91
77052;SHT30;65980;44.898;8.602;2023-03-14T02:29:27;11.06;91.34
77052;SHT30;65980;44.898;8.602;2023-03-14T02:32:33;10.94;91.52
77052;SHT30;65980;44.898;8.602;2023-03-14T02:35:42;10.79;91.85
77052;SHT30;65980;44.898;8.602;2023-03-14T02:41:57;10.72;92.31
77052;SHT30;65980;44.898;8.602;2023-03-14T02:51:21;10.77;91.83
77052;SHT30;65980;44.898;8.602;2023-03-14T02:54:25;10.79;91.80
77052;SHT30;65980;44.898;8.602;2023-03-14T02:57:29;10.79;91.61
77052;SHT30;65980;44.898;8.602;2023-03-14T03:00:33;10.77;91.40
77052;SHT30;65980;44.898;8.602;2023-03-14T03:03:39;10.86;91.02
77052;SHT30;65980;44.898;8.602;2023-03-14T03:06:43;10.80;91.12
77052;SHT30;65980;44.898;8.602;2023-03-14T03:09:47;10.84;90.70
77052;SHT30;65980;44.898;8.602;2023-03-14T03:12:51;10.90;91.09
77052;SHT30;65980;44.898;8.602;2023-03-14T03:15:58;10.93;90.42
77052;SHT30;65980;44.898;8.602;2023-03-14T03:19:02;10.76;91.41
77052;SHT30;65980;44.898;8.602;2023-03-14T03:22:06;10.83;91.47
77052;SHT30;65980;44.898;8.602;2023-03-14T03:25:10;10.70;92.12
77052;SHT30;65980;44.898;8.602;2023-03-14T03:28:14;10.67;92.71
77052;SHT30;65980;44.898;8.602;2023-03-14T03:31:18;10.65;92.32
77052;SHT30;65980;44.898;8.602;2023-03-14T03:34:25;10.62;92.73
77052;SHT30;65980;44.898;8.602;2023-03-14T03:37:32;10.49;94.40
77052;SHT30;65980;44.898;8.602;2023-03-14T03:40:36;10.32;95.73
77052;SHT30;65980;44.898;8.602;2023-03-14T03:43:40;10.24;96.32
77052;SHT30;65980;44.898;8.602;2023-03-14T03:46:48;10.15;96.29
77052;SHT30;65980;44.898;8.602;2023-03-14T03:49:52;10.07;96.02
77052;SHT30;65980;44.898;8.602;2023-03-14T03:52:56;10.03;96.22
77052;SHT30;65980;44.898;8.602;2023-03-14T03:56:00;9.93;96.22
77052;SHT30;65980;44.898;8.602;2023-03-14T03:59:05;9.91;96.14
77052;SHT30;65980;44.898;8.602;2023-03-14T04:02:09;9.93;96.26
77052;SHT30;65980;44.898;8.602;2023-03-14T04:05:13;9.93;96.10
77052;SHT30;65980;44.898;8.602;2023-03-14T04:08:23;9.89;96.05
77052;SHT30;65980;44.898;8.602;2023-03-14T04:11:27;9.94;96.09
77052;SHT30;65980;44.898;8.602;2023-03-14T04:14:40;9.87;96.00
77052;SHT30;65980;44.898;8.602;2023-03-14T04:17:56;9.89;96.17
77052;SHT30;65980;44.898;8.602;2023-03-14T04:21:00;9.91;96.30
77052;SHT30;65980;44.898;8.602;2023-03-14T04:24:13;9.93;96.22
77052;SHT30;65980;44.898;8.602;2023-03-14T04:27:24;9.89;96.22
77052;SHT30;65980;44.898;8.602;2023-03-14T04:30:28;10.01;96.67
77052;SHT30;65980;44.898;8.602;2023-03-14T04:33:44;10.12;96.55
77052;SHT30;65980;44.898;8.602;2023-03-14T04:36:49;10.39;96.55
77052;SHT30;65980;44.898;8.602;2023-03-14T04:39:58;10.46;95.58
77052;SHT30;65980;44.898;8.602;2023-03-14T04:43:05;10.53;95.18
77052;SHT30;65980;44.898;8.602;2023-03-14T04:46:09;10.48;93.56
77052;SHT30;65980;44.898;8.602;2023-03-14T04:49:14;10.22;94.73
77052;SHT30;65980;44.898;8.602;2023-03-14T04:52:19;10.30;95.13
77052;SHT30;65980;44.898;8.602;2023-03-14T04:55:24;10.17;95.39
77052;SHT30;65980;44.898;8.602;2023-03-14T04:58:28;10.22;95.12
77052;SHT30;65980;44.898;8.602;2023-03-14T05:01:34;10.42;95.15
77052;SHT30;65980;44.898;8.602;2023-03-14T05:05:08;10.52;94.68
77052;SHT30;65980;44.898;8.602;2023-03-14T05:08:33;10.60;94.59
77052;SHT30;65980;44.898;8.602;2023-03-14T05:11:59;10.55;93.83
77052;SHT30;65980;44.898;8.602;2023-03-14T05:15:27;10.38;93.98
77052;SHT30;65980;44.898;8.602;2023-03-14T05:18:34;10.30;94.09
77052;SHT30;65980;44.898;8.602;2023-03-14T05:21:52;10.30;94.11
77052;SHT30;65980;44.898;8.602;2023-03-14T05:25:09;10.37;94.71
77052;SHT30;65980;44.898;8.602;2023-03-14T05:28:27;10.58;94.58
77052;SHT30;65980;44.898;8.602;2023-03-14T05:31:43;10.50;93.46
77052;SHT30;65980;44.898;8.602;2023-03-14T05:35:16;10.75;92.71
77052;SHT30;65980;44.898;8.602;2023-03-14T05:38:30;10.62;93.25
77052;SHT30;65980;44.898;8.602;2023-03-14T05:42:07;10.04;94.55
77052;SHT30;65980;44.898;8.602;2023-03-14T05:45:40;9.89;95.83
77052;SHT30;65980;44.898;8.602;2023-03-14T05:49:18;9.95;96.29
77052;SHT30;65980;44.898;8.602;2023-03-14T05:52:37;10.05;96.28
77052;SHT30;65980;44.898;8.602;2023-03-14T05:56:07;10.28;96.29
77052;SHT30;65980;44.898;8.602;2023-03-14T05:59:32;10.48;95.77
77052;SHT30;65980;44.898;8.602;2023-03-14T06:03:11;10.55;95.20
77052;SHT30;65980;44.898;8.602;2023-03-14T06:06:20;10.73;94.25
77052;SHT30;65980;44.898;8.602;2023-03-14T06:09:25;10.49;94.25
77052;SHT30;65980;44.898;8.602;2023-03-14T06:12:33;10.38;94.51
77052;SHT30;65980;44.898;8.602;2023-03-14T06:15:41;10.46;94.82
77052;SHT30;65980;44.898;8.602;2023-03-14T06:18:46;10.79;94.12
77052;SHT30;65980;44.898;8.602;2023-03-14T06:21:53;10.89;94.13
77052;SHT30;65980;44.898;8.602;2023-03-14T06:24:58;10.94;94.04
77052;SHT30;65980;44.898;8.602;2023-03-14T06:28:03;10.86;93.51
77052;SHT30;65980;44.898;8.602;2023-03-14T06:31:08;10.49;94.02
77052;SHT30;65980;44.898;8.602;2023-03-14T06:34:21;10.44;94.83
77052;SHT30;65980;44.898;8.602;2023-03-14T06:37:25;10.63;94.19
77052;SHT30;65980;44.898;8.602;2023-03-14T06:40:30;10.79;93.96
77052;SHT30;65980;44.898;8.602;2023-03-14T06:43:39;11.00;92.50
77052;SHT30;65980;44.898;8.602;2023-03-14T06:46:47;11.00;92.25
77052;SHT30;65980;44.898;8.602;2023-03-14T06:49:51;11.29;91.88
77052;SHT30;65980;44.898;8.602;2023-03-14T06:52:56;11.25;91.69
77052;SHT30;65980;44.898;8.602;2023-03-14T06:56:04;10.72;92.08
77052;SHT30;65980;44.898;8.602;2023-03-14T06:59:11;10.49;93.49
77052;SHT30;65980;44.898;8.602;2023-03-14T07:02:17;10.46;93.69
77052;SHT30;65980;44.898;8.602;2023-03-14T07:05:21;10.45;93.90
77052;SHT30;65980;44.898;8.602;2023-03-14T07:08:25;10.65;93.99
77052;SHT30;65980;44.898;8.602;2023-03-14T07:11:30;10.67;93.11
77052;SHT30;65980;44.898;8.602;2023-03-14T07:14:35;10.75;93.08
77052;SHT30;65980;44.898;8.602;2023-03-14T07:17:39;10.75;92.49
77052;SHT30;65980;44.898;8.602;2023-03-14T07:20:45;10.90;91.44
77052;SHT30;65980;44.898;8.602;2023-03-14T07:23:51;11.00;90.61
77052;SHT30;65980;44.898;8.602;2023-03-14T07:26:57;11.03;90.52
77052;SHT30;65980;44.898;8.602;2023-03-14T07:30:01;11.17;89.64
77052;SHT30;65980;44.898;8.602;2023-03-14T07:33:07;11.27;89.05
77052;SHT30;65980;44.898;8.602;2023-03-14T07:36:19;11.35;89.13
77052;SHT30;65980;44.898;8.602;2023-03-14T07:39:25;11.55;87.12
77052;SHT30;65980;44.898;8.602;2023-03-14T07:42:44;11.31;86.36
77052;SHT30;65980;44.898;8.602;2023-03-14T07:45:54;11.38;86.75
77052;SHT30;65980;44.898;8.602;2023-03-14T07:49:01;11.48;86.55
77052;SHT30;65980;44.898;8.602;2023-03-14T07:52:06;11.58;84.45
77052;SHT30;65980;44.898;8.602;2023-03-14T07:55:11;11.69;84.53
77052;SHT30;65980;44.898;8.602;2023-03-14T07:58:17;11.70;84.67
77052;SHT30;65980;44.898;8.602;2023-03-14T08:01:22;11.97;82.93
77052;SHT30;65980;44.898;8.602;2023-03-14T08:04:26;12.13;82.14
77052;SHT30;65980;44.898;8.602;2023-03-14T08:07:31;12.31;82.54
77052;SHT30;65980;44.898;8.602;2023-03-14T08:10:39;12.10;82.03
77052;SHT30;65980;44.898;8.602;2023-03-14T08:13:44;12.00;82.30
77052;SHT30;65980;44.898;8.602;2023-03-14T08:16:53;12.25;82.16
77052;SHT30;65980;44.898;8.602;2023-03-14T08:19:57;12.57;79.97
77052;SHT30;65980;44.898;8.602;2023-03-14T08:23:01;12.83;78.31
77052;SHT30;65980;44.898;8.602;2023-03-14T08:26:05;12.69;78.28
77052;SHT30;65980;44.898;8.602;2023-03-14T08:29:10;12.79;78.80
77052;SHT30;65980;44.898;8.602;2023-03-14T08:32:16;12.66;77.64
77052;SHT30;65980;44.898;8.602;2023-03-14T08:35:20;13.11;77.76
77052;SHT30;65980;44.898;8.602;2023-03-14T08:38:26;13.58;75.18
77052;SHT30;65980;44.898;8.602;2023-03-14T08:41:31;14.27;72.60
77052;SHT30;65980;44.898;8.602;2023-03-14T08:44:36;14.46;70.13
77052;SHT30;65980;44.898;8.602;2023-03-14T08:47:42;15.54;69.71
77052;SHT30;65980;44.898;8.602;2023-03-14T08:50:48;16.89;64.06
77052;SHT30;65980;44.898;8.602;2023-03-14T08:55:03;16.17;68.68
77052;SHT30;65980;44.898;8.602;2023-03-14T08:58:07;15.79;68.13
77052;SHT30;65980;44.898;8.602;2023-03-14T09:01:20;15.73;67.58
77052;SHT30;65980;44.898;8.602;2023-03-14T09:04:36;17.51;63.43
77052;SHT30;65980;44.898;8.602;2023-03-14T09:08:15;16.89;64.04
77052;SHT30;65980;44.898;8.602;2023-03-14T09:11:44;15.83;68.54
77052;SHT30;65980;44.898;8.602;2023-03-14T09:14:50;15.11;69.38
77052;SHT30;65980;44.898;8.602;2023-03-14T09:18:03;14.22;72.06
77052;SHT30;65980;44.898;8.602;2023-03-14T09:21:09;14.03;72.40
77052;SHT30;65980;44.898;8.602;2023-03-14T09:24:16;14.25;72.53
77052;SHT30;65980;44.898;8.602;2023-03-14T09:27:21;14.41;73.12
77052;SHT30;65980;44.898;8.602;2023-03-14T09:30:30;14.31;73.90
77052;SHT30;65980;44.898;8.602;2023-03-14T09:33:36;14.51;73.13
77052;SHT30;65980;44.898;8.602;2023-03-14T09:36:43;13.97;74.61
77052;SHT30;65980;44.898;8.602;2023-03-14T09:39:51;13.65;76.31
77052;SHT30;65980;44.898;8.602;2023-03-14T09:42:58;13.59;75.80
77052;SHT30;65980;44.898;8.602;2023-03-14T09:46:36;13.74;76.02
77052;SHT30;65980;44.898;8.602;2023-03-14T09:49:44;13.89;74.76
77052;SHT30;65980;44.898;8.602;2023-03-14T09:52:56;13.94;76.35
77052;SHT30;65980;44.898;8.602;2023-03-14T09:56:19;14.01;75.14
77052;SHT30;65980;44.898;8.602;2023-03-14T09:59:28;14.24;75.02
77052;SHT30;65980;44.898;8.602;2023-03-14T10:02:35;14.56;74.67
77052;SHT30;65980;44.898;8.602;2023-03-14T10:05:40;14.58;73.86
77052;SHT30;65980;44.898;8.602;2023-03-14T10:08:45;14.66;72.96
77052;SHT30;65980;44.898;8.602;2023-03-14T10:11:49;14.44;73.31
77052;SHT30;65980;44.898;8.602;2023-03-14T10:14:53;14.59;73.75
77052;SHT30;65980;44.898;8.602;2023-03-14T10:18:02;14.62;71.31
77052;SHT30;65980;44.898;8.602;2023-03-14T10:21:09;14.54;71.14
77052;SHT30;65980;44.898;8.602;2023-03-14T10:24:34;14.56;71.40
77052;SHT30;65980;44.898;8.602;2023-03-14T10:27:40;14.84;70.77
77052;SHT30;65980;44.898;8.602;2023-03-14T10:30:45;14.93;68.89
77052;SHT30;65980;44.898;8.602;2023-03-14T10:34:03;14.68;70.59
77052;SHT30;65980;44.898;8.602;2023-03-14T10:40:47;14.10;73.17
77052;SHT30;65980;44.898;8.602;2023-03-14T10:43:57;14.16;72.72
77052;SHT30;65980;44.898;8.602;2023-03-14T10:47:15;14.25;73.13
77052;SHT30;65980;44.898;8.602;2023-03-14T10:50:30;14.18;73.68
77052;SHT30;65980;44.898;8.602;2023-03-14T10:53:45;14.09;74.11
77052;SHT30;65980;44.898;8.602;2023-03-14T10:57:01;14.04;73.54
77052;SHT30;65980;44.898;8.602;2023-03-14T11:00:21;14.13;72.06
77052;SHT30;65980;44.898;8.602;2023-03-14T11:03:29;14.20;72.45
77052;SHT30;65980;44.898;8.602;2023-03-14T11:10:09;14.75;71.36
77052;SHT30;65980;44.898;8.602;2023-03-14T11:13:22;15.14;70.91
77052;SHT30;65980;44.898;8.602;2023-03-14T11:23:23;15.14;70.41
77052;SHT30;65980;44.898;8.602;2023-03-14T11:33:15;15.59;68.98
77052;SHT30;65980;44.898;8.602;2023-03-14T11:36:21;15.32;68.74
77052;SHT30;65980;44.898;8.602;2023-03-14T11:39:26;15.67;68.92
77052;SHT30;65980;44.898;8.602;2023-03-14T11:42:34;15.58;68.26
77052;SHT30;65980;44.898;8.602;2023-03-14T11:57:10;15.41;67.16
77052;SHT30;65980;44.898;8.602;2023-03-14T12:00:17;15.31;68.26
77052;SHT30;65980;44.898;8.602;2023-03-14T12:06:31;15.38;69.07
77052;SHT30;65980;44.898;8.602;2023-03-14T12:10:11;15.38;69.41
77052;SHT30;65980;44.898;8.602;2023-03-14T12:13:19;15.16;69.54
77052;SHT30;65980;44.898;8.602;2023-03-14T12:19:46;14.97;70.49
77052;SHT30;65980;44.898;8.602;2023-03-14T12:30:48;15.54;68.56
77052;SHT30;65980;44.898;8.602;2023-03-14T12:40:30;15.80;67.53
77052;SHT30;65980;44.898;8.602;2023-03-14T12:43:35;15.61;69.24
77052;SHT30;65980;44.898;8.602;2023-03-14T12:46:40;15.61;68.81
77052;SHT30;65980;44.898;8.602;2023-03-14T12:49:51;15.61;69.14
77052;SHT30;65980;44.898;8.602;2023-03-14T13:02:29;15.85;70.06
77052;SHT30;65980;44.898;8.602;2023-03-14T13:05:57;15.80;67.67
77052;SHT30;65980;44.898;8.602;2023-03-14T13:12:44;15.78;67.88
77052;SHT30;65980;44.898;8.602;2023-03-14T13:15:54;15.80;67.75
77052;SHT30;65980;44.898;8.602;2023-03-14T13:19:13;15.79;69.14
77052;SHT30;65980;44.898;8.602;2023-03-14T13:22:22;15.80;68.18
77052;SHT30;65980;44.898;8.602;2023-03-14T13:25:34;15.30;69.79
77052;SHT30;65980;44.898;8.602;2023-03-14T13:28:39;15.44;69.24
77052;SHT30;65980;44.898;8.602;2023-03-14T13:31:45;15.28;69.55
77052;SHT30;65980;44.898;8.602;2023-03-14T13:34:49;15.34;70.29
77052;SHT30;65980;44.898;8.602;2023-03-14T13:37:55;15.39;69.27
77052;SHT30;65980;44.898;8.602;2023-03-14T13:41:03;15.41;69.46
77052;SHT30;65980;44.898;8.602;2023-03-14T13:44:09;15.14;70.24
77052;SHT30;65980;44.898;8.602;2023-03-14T13:47:18;15.34;69.89
77052;SHT30;65980;44.898;8.602;2023-03-14T13:50:22;15.30;70.24
77052;SHT30;65980;44.898;8.602;2023-03-14T13:53:26;14.83;73.33
77052;SHT30;65980;44.898;8.602;2023-03-14T13:56:31;15.07;71.87
77052;SHT30;65980;44.898;8.602;2023-03-14T13:59:36;14.63;72.52
77052;SHT30;65980;44.898;8.602;2023-03-14T14:02:40;14.37;73.59
77052;SHT30;65980;44.898;8.602;2023-03-14T14:05:46;14.59;73.41
77052;SHT30;65980;44.898;8.602;2023-03-14T14:08:58;14.75;71.34
77052;SHT30;65980;44.898;8.602;2023-03-14T14:12:06;14.82;71.99
77052;SHT30;65980;44.898;8.602;2023-03-14T14:15:22;14.99;71.68
77052;SHT30;65980;44.898;8.602;2023-03-14T14:18:26;15.08;72.07
77052;SHT30;65980;44.898;8.602;2023-03-14T14:21:31;15.01;72.03
77052;SHT30;65980;44.898;8.602;2023-03-14T14:24:36;15.30;71.79
77052;SHT30;65980;44.898;8.602;2023-03-14T14:27:43;15.52;70.57
77052;SHT30;65980;44.898;8.602;2023-03-14T14:30:59;15.54;70.84
77052;SHT30;65980;44.898;8.602;2023-03-14T14:34:03;15.52;70.96
77052;SHT30;65980;44.898;8.602;2023-03-14T14:40:24;15.55;70.87
77052;SHT30;65980;44.898;8.602;2023-03-14T14:43:30;15.18;72.09
77052;SHT30;65980;44.898;8.602;2023-03-14T14:46:35;15.14;72.57
77052;SHT30;65980;44.898;8.602;2023-03-14T14:49:41;15.28;71.28
77052;SHT30;65980;44.898;8.602;2023-03-14T14:52:45;15.52;70.43
77052;SHT30;65980;44.898;8.602;2023-03-14T14:55:50;15.51;70.64
77052;SHT30;65980;44.898;8.602;2023-03-14T14:58:56;15.69;70.20
77052;SHT30;65980;44.898;8.602;2023-03-14T15:02:02;15.72;69.70
77052;SHT30;65980;44.898;8.602;2023-03-14T15:05:11;15.58;70.61
77052;SHT30;65980;44.898;8.602;2023-03-14T15:08:15;15.63;70.54
77052;SHT30;65980;44.898;8.602;2023-03-14T15:11:21;15.46;71.11
77052;SHT30;65980;44.898;8.602;2023-03-14T15:14:26;15.36;71.45
77052;SHT30;65980;44.898;8.602;2023-03-14T15:17:30;15.30;71.80
77052;SHT30;65980;44.898;8.602;2023-03-14T15:20:35;15.11;71.65
77052;SHT30;65980;44.898;8.602;2023-03-14T15:23:39;15.27;71.01
77052;SHT30;65980;44.898;8.602;2023-03-14T15:26:43;15.31;70.88
77052;SHT30;65980;44.898;8.602;2023-03-14T15:29:48;15.01;72.09
77052;SHT30;65980;44.898;8.602;2023-03-14T15:32:51;15.12;72.41
77052;SHT30;65980;44.898;8.602;2023-03-14T15:35:55;15.16;72.34
77052;SHT30;65980;44.898;8.602;2023-03-14T15:39:02;15.11;72.03
77052;SHT30;65980;44.898;8.602;2023-03-14T15:42:06;15.07;72.14
77052;SHT30;65980;44.898;8.602;2023-03-14T15:45:10;14.94;72.94
77052;SHT30;65980;44.898;8.602;2023-03-14T15:48:18;15.12;72.27
77052;SHT30;65980;44.898;8.602;2023-03-14T15:51:23;15.06;72.74
77052;SHT30;65980;44.898;8.602;2023-03-14T15:54:27;15.00;72.76
77052;SHT30;65980;44.898;8.602;2023-03-14T15:57:32;15.03;72.51
77052;SHT30;65980;44.898;8.602;2023-03-14T16:00:36;14.89;72.65
77052;SHT30;65980;44.898;8.602;2023-03-14T16:03:42;14.77;73.07
77052;SHT30;65980;44.898;8.602;2023-03-14T16:06:48;14.80;73.49
77052;SHT30;65980;44.898;8.602;2023-03-14T16:09:51;14.87;72.92
77052;SHT30;65980;44.898;8.602;2023-03-14T16:12:55;14.77;73.31
77052;SHT30;65980;44.898;8.602;2023-03-14T16:16:00;14.63;73.94
77052;SHT30;65980;44.898;8.602;2023-03-14T16:19:06;14.80;73.68
77052;SHT30;65980;44.898;8.602;2023-03-14T16:22:10;14.77;73.81
77052;SHT30;65980;44.898;8.602;2023-03-14T16:25:15;14.82;73.92
77052;SHT30;65980;44.898;8.602;2023-03-14T16:28:20;14.61;74.69
77052;SHT30;65980;44.898;8.602;2023-03-14T16:31:24;14.72;74.53
77052;SHT30;65980;44.898;8.602;2023-03-14T16:34:29;14.73;74.97
77052;SHT30;65980;44.898;8.602;2023-03-14T16:37:34;14.72;74.96
77052;SHT30;65980;44.898;8.602;2023-03-14T16:40:39;14.87;74.11
77052;SHT30;65980;44.898;8.602;2023-03-14T16:43:43;14.73;74.71
77052;SHT30;65980;44.898;8.602;2023-03-14T16:46:47;14.79;74.12
77052;SHT30;65980;44.898;8.602;2023-03-14T16:49:51;14.89;74.28
77052;SHT30;65980;44.898;8.602;2023-03-14T16:52:56;15.18;73.39
77052;SHT30;65980;44.898;8.602;2023-03-14T16:56:01;15.28;72.56
77052;SHT30;65980;44.898;8.602;2023-03-14T16:59:05;15.11;73.69
77052;SHT30;65980;44.898;8.602;2023-03-14T17:02:10;14.84;73.97
77052;SHT30;65980;44.898;8.602;2023-03-14T17:05:14;14.93;73.62
77052;SHT30;65980;44.898;8.602;2023-03-14T17:08:19;14.96;73.22
77052;SHT30;65980;44.898;8.602;2023-03-14T17:11:23;14.86;73.80
77052;SHT30;65980;44.898;8.602;2023-03-14T17:14:27;14.82;73.63
77052;SHT30;65980;44.898;8.602;2023-03-14T17:17:31;14.66;74.44
77052;SHT30;65980;44.898;8.602;2023-03-14T17:20:35;14.34;75.92
77052;SHT30;65980;44.898;8.602;2023-03-14T17:23:41;14.07;77.03
77052;SHT30;65980;44.898;8.602;2023-03-14T17:26:45;14.11;76.55
77052;SHT30;65980;44.898;8.602;2023-03-14T17:29:49;14.16;76.28
77052;SHT30;65980;44.898;8.602;2023-03-14T17:32:55;14.21;76.40
77052;SHT30;65980;44.898;8.602;2023-03-14T17:35:59;13.96;77.37
77052;SHT30;65980;44.898;8.602;2023-03-14T17:39:03;13.70;78.49
77052;SHT30;65980;44.898;8.602;2023-03-14T17:42:09;13.59;78.73
77052;SHT30;65980;44.898;8.602;2023-03-14T17:45:14;13.61;78.42
77052;SHT30;65980;44.898;8.602;2023-03-14T17:48:23;13.70;78.21
77052;SHT30;65980;44.898;8.602;2023-03-14T17:51:27;13.63;78.03
77052;SHT30;65980;44.898;8.602;2023-03-14T17:54:31;13.67;77.89
77052;SHT30;65980;44.898;8.602;2023-03-14T17:57:35;13.76;77.43
77052;SHT30;65980;44.898;8.602;2023-03-14T18:00:41;13.61;78.18
77052;SHT30;65980;44.898;8.602;2023-03-14T18:03:45;13.38;78.95
77052;SHT30;65980;44.898;8.602;2023-03-14T18:06:51;13.35;78.69
77052;SHT30;65980;44.898;8.602;2023-03-14T18:09:55;13.28;78.73
77052;SHT30;65980;44.898;8.602;2023-03-14T18:13:05;13.28;78.58
77052;SHT30;65980;44.898;8.602;2023-03-14T18:16:10;13.24;78.27
77052;SHT30;65980;44.898;8.602;2023-03-14T18:19:17;13.31;77.87
77052;SHT30;65980;44.898;8.602;2023-03-14T18:22:21;13.35;77.40
77052;SHT30;65980;44.898;8.602;2023-03-14T18:25:26;13.45;77.28
77052;SHT30;65980;44.898;8.602;2023-03-14T18:28:30;13.46;77.16
77052;SHT30;65980;44.898;8.602;2023-03-14T18:31:34;13.62;76.55
77052;SHT30;65980;44.898;8.602;2023-03-14T18:34:38;13.65;76.21
77052;SHT30;65980;44.898;8.602;2023-03-14T18:37:42;13.62;76.03
77052;SHT30;65980;44.898;8.602;2023-03-14T18:40:46;13.63;76.25
77052;SHT30;65980;44.898;8.602;2023-03-14T18:43:50;13.55;76.54
77052;SHT30;65980;44.898;8.602;2023-03-14T18:46:56;13.51;76.65
77052;SHT30;65980;44.898;8.602;2023-03-14T18:50:00;13.45;76.57
77052;SHT30;65980;44.898;8.602;2023-03-14T18:53:04;13.46;76.59
77052;SHT30;65980;44.898;8.602;2023-03-14T18:56:08;13.39;76.24
77052;SHT30;65980;44.898;8.602;2023-03-14T18:59:16;13.44;75.90
77052;SHT30;65980;44.898;8.602;2023-03-14T19:02:20;13.41;75.90
77052;SHT30;65980;44.898;8.602;2023-03-14T19:05:24;13.49;75.48
77052;SHT30;65980;44.898;8.602;2023-03-14T19:08:28;12.93;77.58
77052;SHT30;65980;44.898;8.602;2023-03-14T19:11:32;12.94;78.04
77052;SHT30;65980;44.898;8.602;2023-03-14T19:14:36;13.20;77.22
77052;SHT30;65980;44.898;8.602;2023-03-14T19:17:40;13.25;77.04
77052;SHT30;65980;44.898;8.602;2023-03-14T19:20:46;13.06;77.52
77052;SHT30;65980;44.898;8.602;2023-03-14T19:23:59;12.96;78.12
77052;SHT30;65980;44.898;8.602;2023-03-14T19:27:04;12.97;78.23
77052;SHT30;65980;44.898;8.602;2023-03-14T19:30:10;12.89;78.30
77052;SHT30;65980;44.898;8.602;2023-03-14T19:33:14;12.90;78.37
77052;SHT30;65980;44.898;8.602;2023-03-14T19:36:23;12.75;78.62
77052;SHT30;65980;44.898;8.602;2023-03-14T19:39:27;12.69;78.79
77052;SHT30;65980;44.898;8.602;2023-03-14T19:42:31;12.38;79.71
77052;SHT30;65980;44.898;8.602;2023-03-14T19:45:36;12.31;80.48
77052;SHT30;65980;44.898;8.602;2023-03-14T19:48:41;12.32;80.19
77052;SHT30;65980;44.898;8.602;2023-03-14T19:51:48;11.67;82.36
77052;SHT30;65980;44.898;8.602;2023-03-14T19:54:54;11.84;81.92
77052;SHT30;65980;44.898;8.602;2023-03-14T19:57:59;11.43;83.45
77052;SHT30;65980;44.898;8.602;2023-03-14T20:01:04;11.39;84.44
77052;SHT30;65980;44.898;8.602;2023-03-14T20:04:10;11.62;83.54
77052;SHT30;65980;44.898;8.602;2023-03-14T20:07:17;11.55;83.22
77052;SHT30;65980;44.898;8.602;2023-03-14T20:10:21;11.55;83.19
77052;SHT30;65980;44.898;8.602;2023-03-14T20:13:25;11.48;82.78
77052;SHT30;65980;44.898;8.602;2023-03-14T20:16:30;11.48;82.44
77052;SHT30;65980;44.898;8.602;2023-03-14T20:19:38;11.52;81.85
77052;SHT30;65980;44.898;8.602;2023-03-14T20:22:43;11.65;80.67
77052;SHT30;65980;44.898;8.602;2023-03-14T20:25:54;11.65;80.64
77052;SHT30;65980;44.898;8.602;2023-03-14T20:28:58;11.65;80.40
77052;SHT30;65980;44.898;8.602;2023-03-14T20:32:03;11.63;79.79
77052;SHT30;65980;44.898;8.602;2023-03-14T20:35:09;11.54;79.47
77052;SHT30;65980;44.898;8.602;2023-03-14T20:38:15;11.52;79.26
77052;SHT30;65980;44.898;8.602;2023-03-14T20:41:19;11.49;79.00
77052;SHT30;65980;44.898;8.602;2023-03-14T20:44:23;11.51;78.67
77052;SHT30;65980;44.898;8.602;2023-03-14T20:47:27;11.39;78.64
77052;SHT30;65980;44.898;8.602;2023-03-14T20:50:31;11.35;77.88
77052;SHT30;65980;44.898;8.602;2023-03-14T20:53:35;11.34;78.00
77052;SHT30;65980;44.898;8.602;2023-03-14T20:56:40;11.32;77.35
77052;SHT30;65980;44.898;8.602;2023-03-14T20:59:45;11.24;77.28
77052;SHT30;65980;44.898;8.602;2023-03-14T21:02:49;11.20;76.13
77052;SHT30;65980;44.898;8.602;2023-03-14T21:05:53;11.21;75.91
77052;SHT30;65980;44.898;8.602;2023-03-14T21:08:59;11.21;75.19
77052;SHT30;65980;44.898;8.602;2023-03-14T21:12:08;11.22;74.03
77052;SHT30;65980;44.898;8.602;2023-03-14T21:15:12;11.06;74.73